sensor_id;sensor_type;location;lat;lon;timestamp;pressure;altitude;pressure_sealevel;temperature;humidity
19594;BME280;9944;48.240;16.478;2023-05-20T00:03:52;100294.53;;;12.74;78.55
19594;BME280;9944;48.240;16.478;2023-05-20T00:07:55;100291.00;;;12.72;78.67
19594;BME280;9944;48.240;16.478;2023-05-20T00:11:58;100290.09;;;12.68;78.46
19594;BME280;9944;48.240;16.478;2023-05-20T00:16:02;100283.06;;;12.61;78.66
19594;BME280;9944;48.240;16.478;2023-05-20T00:20:07;100291.03;;;12.57;78.48
19594;BME280;9944;48.240;16.478;2023-05-20T00:24:11;100292.81;;;12.52;78.60
19594;BME280;9944;48.240;16.478;2023-05-20T00:28:14;100279.59;;;12.44;78.60
19594;BME280;9944;48.240;16.478;2023-05-20T00:32:17;100275.19;;;12.35;78.87
19594;BME280;9944;48.240;16.478;2023-05-20T00:36:21;100267.28;;;12.30;78.70
19594;BME280;9944;48.240;16.478;2023-05-20T00:40:24;100281.41;;;12.23;78.87
19594;BME280;9944;48.240;16.478;2023-05-20T00:44:28;100280.53;;;12.20;79.11
19594;BME280;9944;48.240;16.478;2023-05-20T00:48:38;100285.88;;;12.15;79.33
19594;BME280;9944;48.240;16.478;2023-05-20T00:52:43;100275.28;;;12.12;79.37
19594;BME280;9944;48.240;16.478;2023-05-20T00:56:49;100277.06;;;12.05;79.48
19594;BME280;9944;48.240;16.478;2023-05-20T01:00:53;100279.69;;;12.01;79.25
19594;BME280;9944;48.240;16.478;2023-05-20T01:04:56;100272.66;;;11.97;79.10
19594;BME280;9944;48.240;16.478;2023-05-20T01:09:01;100270.91;;;11.92;79.59
19594;BME280;9944;48.240;16.478;2023-05-20T01:13:08;100253.25;;;11.91;79.38
19594;BME280;9944;48.240;16.478;2023-05-20T01:17:14;100251.53;;;11.87;79.70
19594;BME280;9944;48.240;16.478;2023-05-20T01:21:18;100250.66;;;11.84;79.36
19594;BME280;9944;48.240;16.478;2023-05-20T01:25:24;100252.38;;;11.82;79.84
19594;BME280;9944;48.240;16.478;2023-05-20T01:29:27;100247.13;;;11.80;79.73
19594;BME280;9944;48.240;16.478;2023-05-20T01:33:35;100251.53;;;11.77;79.45
19594;BME280;9944;48.240;16.478;2023-05-20T01:37:39;100260.34;;;11.77;79.53
19594;BME280;9944;48.240;16.478;2023-05-20T01:41:45;100256.81;;;11.72;79.41
19594;BME280;9944;48.240;16.478;2023-05-20T01:45:49;100253.31;;;11.68;79.38
19594;BME280;9944;48.240;16.478;2023-05-20T01:49:52;100255.06;;;11.66;79.54
19594;BME280;9944;48.240;16.478;2023-05-20T01:53:55;100257.72;;;11.60;79.27
19594;BME280;9944;48.240;16.478;2023-05-20T01:58:00;100261.25;;;11.56;79.30
19594;BME280;9944;48.240;16.478;2023-05-20T02:02:03;100262.09;;;11.50;79.54
19594;BME280;9944;48.240;16.478;2023-05-20T02:06:07;100244.50;;;11.46;79.63
19594;BME280;9944;48.240;16.478;2023-05-20T02:10:10;100248.03;;;11.41;79.61
19594;BME280;9944;48.240;16.478;2023-05-20T02:14:14;100253.31;;;11.36;80.06
19594;BME280;9944;48.240;16.478;2023-05-20T02:18:17;100248.88;;;11.30;79.88
19594;BME280;9944;48.240;16.478;2023-05-20T02:22:20;100258.56;;;11.27;80.18
19594;BME280;9944;48.240;16.478;2023-05-20T02:26:24;100255.03;;;11.25;80.13
19594;BME280;9944;48.240;16.478;2023-05-20T02:30:28;100248.84;;;11.23;80.18
19594;BME280;9944;48.240;16.478;2023-05-20T02:34:31;100249.75;;;11.22;79.99
19594;BME280;9944;48.240;16.478;2023-05-20T02:38:35;100256.81;;;11.19;80.07
19594;BME280;9944;48.240;16.478;2023-05-20T02:42:38;100256.78;;;11.16;80.13
19594;BME280;9944;48.240;16.478;2023-05-20T02:46:42;100259.41;;;11.12;80.16
19594;BME280;9944;48.240;16.478;2023-05-20T02:50:46;100251.47;;;11.10;79.98
19594;BME280;9944;48.240;16.478;2023-05-20T02:54:49;100255.03;;;11.09;79.75
19594;BME280;9944;48.240;16.478;2023-05-20T02:58:53;100249.75;;;11.09;79.83
19594;BME280;9944;48.240;16.478;2023-05-20T03:02:58;100261.19;;;11.10;79.85
19594;BME280;9944;48.240;16.478;2023-05-20T03:07:02;100252.38;;;11.06;79.66
19594;BME280;9944;48.240;16.478;2023-05-20T03:11:06;100243.56;;;11.04;79.37
19594;BME280;9944;48.240;16.478;2023-05-20T03:15:10;100247.06;;;11.03;79.36
19594;BME280;9944;48.240;16.478;2023-05-20T03:19:14;100237.38;;;10.99;79.34
19594;BME280;9944;48.240;16.478;2023-05-20T03:23:18;100259.38;;;10.95;79.38
19594;BME280;9944;48.240;16.478;2023-05-20T03:27:22;100260.28;;;10.94;79.37
19594;BME280;9944;48.240;16.478;2023-05-20T03:31:28;100268.19;;;10.92;79.20
19594;BME280;9944;48.240;16.478;2023-05-20T03:35:32;100269.09;;;10.90;79.68
19594;BME280;9944;48.240;16.478;2023-05-20T03:39:36;100277.88;;;10.89;79.31
19594;BME280;9944;48.240;16.478;2023-05-20T03:43:39;100270.81;;;10.81;79.45
19594;BME280;9944;48.240;16.478;2023-05-20T03:47:43;100270.81;;;10.80;79.65
19594;BME280;9944;48.240;16.478;2023-05-20T03:51:47;100256.72;;;10.79;79.56
19594;BME280;9944;48.240;16.478;2023-05-20T03:55:51;100257.59;;;10.77;79.53
19594;BME280;9944;48.240;16.478;2023-05-20T03:59:54;100248.78;;;10.75;79.74
19594;BME280;9944;48.240;16.478;2023-05-20T04:03:57;100245.25;;;10.74;80.07
19594;BME280;9944;48.240;16.478;2023-05-20T04:08:02;100239.09;;;10.74;80.39
19594;BME280;9944;48.240;16.478;2023-05-20T04:12:06;100260.22;;;10.75;80.48
19594;BME280;9944;48.240;16.478;2023-05-20T04:16:09;100262.00;;;10.76;81.08
19594;BME280;9944;48.240;16.478;2023-05-20T04:20:13;100288.41;;;10.79;81.32
19594;BME280;9944;48.240;16.478;2023-05-20T04:24:18;100292.81;;;10.85;81.99
19594;BME280;9944;48.240;16.478;2023-05-20T04:28:27;100297.25;;;10.94;82.22
19594;BME280;9944;48.240;16.478;2023-05-20T04:32:32;100294.59;;;11.00;82.13
19594;BME280;9944;48.240;16.478;2023-05-20T04:36:36;100297.28;;;11.06;82.31
19594;BME280;9944;48.240;16.478;2023-05-20T04:40:42;100302.56;;;11.14;82.56
19594;BME280;9944;48.240;16.478;2023-05-20T04:44:45;100292.00;;;11.17;82.10
19594;BME280;9944;48.240;16.478;2023-05-20T04:48:49;100288.50;;;11.23;82.38
19594;BME280;9944;48.240;16.478;2023-05-20T04:52:52;100288.50;;;11.29;82.33
19594;BME280;9944;48.240;16.478;2023-05-20T04:56:57;100277.09;;;11.36;82.64
19594;BME280;9944;48.240;16.478;2023-05-20T05:01:00;100285.91;;;11.40;82.78
19594;BME280;9944;48.240;16.478;2023-05-20T05:05:05;100284.13;;;11.40;82.63
19594;BME280;9944;48.240;16.478;2023-05-20T05:09:08;100283.28;;;11.47;82.61
19594;BME280;9944;48.240;16.478;2023-05-20T05:13:16;100275.34;;;11.47;82.56
19594;BME280;9944;48.240;16.478;2023-05-20T05:17:20;100271.81;;;11.54;82.90
19594;BME280;9944;48.240;16.478;2023-05-20T05:21:23;100265.66;;;11.62;82.96
19594;BME280;9944;48.240;16.478;2023-05-20T05:25:26;100278.00;;;11.72;82.92
19594;BME280;9944;48.240;16.478;2023-05-20T05:29:34;100282.41;;;11.85;82.81
19594;BME280;9944;48.240;16.478;2023-05-20T05:33:37;100286.75;;;12.05;83.08
19594;BME280;9944;48.240;16.478;2023-05-20T05:37:41;100283.19;;;12.21;82.91
19594;BME280;9944;48.240;16.478;2023-05-20T05:41:44;100289.31;;;12.39;82.97
19594;BME280;9944;48.240;16.478;2023-05-20T05:45:49;100291.94;;;12.59;82.09
19594;BME280;9944;48.240;16.478;2023-05-20T05:49:52;100282.13;;;12.76;81.92
19594;BME280;9944;48.240;16.478;2023-05-20T05:53:56;100280.28;;;12.95;81.61
19594;BME280;9944;48.240;16.478;2023-05-20T05:57:59;100279.25;;;13.15;81.01
19594;BME280;9944;48.240;16.478;2023-05-20T06:02:05;100280.88;;;13.34;80.36
19594;BME280;9944;48.240;16.478;2023-05-20T06:06:08;100271.91;;;13.54;79.98
19594;BME280;9944;48.240;16.478;2023-05-20T06:10:11;100273.63;;;13.61;78.97
19594;BME280;9944;48.240;16.478;2023-05-20T06:14:14;100261.13;;;13.72;79.04
19594;BME280;9944;48.240;16.478;2023-05-20T06:18:20;100259.19;;;13.93;78.53
19594;BME280;9944;48.240;16.478;2023-05-20T06:22:26;100267.84;;;14.13;78.28
19594;BME280;9944;48.240;16.478;2023-05-20T06:26:29;100264.09;;;14.30;78.15
19594;BME280;9944;48.240;16.478;2023-05-20T06:30:33;100273.72;;;14.40;77.59
19594;BME280;9944;48.240;16.478;2023-05-20T06:34:38;100276.19;;;14.55;77.58
19594;BME280;9944;48.240;16.478;2023-05-20T06:38:41;100262.75;;;14.69;77.31
19594;BME280;9944;48.240;16.478;2023-05-20T06:42:46;100254.75;;;14.71;76.87
19594;BME280;9944;48.240;16.478;2023-05-20T06:46:49;100260.00;;;14.77;76.46
19594;BME280;9944;48.240;16.478;2023-05-20T06:50:55;100265.22;;;14.86;75.94
19594;BME280;9944;48.240;16.478;2023-05-20T06:54:59;100258.13;;;14.85;76.14
19594;BME280;9944;48.240;16.478;2023-05-20T06:59:02;100265.09;;;14.92;75.61
19594;BME280;9944;48.240;16.478;2023-05-20T07:03:07;100260.47;;;15.08;75.77
19594;BME280;9944;48.240;16.478;2023-05-20T07:07:14;100260.19;;;15.25;75.15
19594;BME280;9944;48.240;16.478;2023-05-20T07:11:19;100255.44;;;15.46;74.89
19594;BME280;9944;48.240;16.478;2023-05-20T07:15:22;100248.03;;;15.63;74.71
19594;BME280;9944;48.240;16.478;2023-05-20T07:19:25;100240.63;;;15.81;73.78
19594;BME280;9944;48.240;16.478;2023-05-20T07:23:30;100236.94;;;15.91;73.61
19594;BME280;9944;48.240;16.478;2023-05-20T07:27:34;100232.28;;;16.04;73.33
19594;BME280;9944;48.240;16.478;2023-05-20T07:31:37;100226.72;;;16.15;73.09
19594;BME280;9944;48.240;16.478;2023-05-20T07:35:40;100225.44;;;16.34;72.18
19594;BME280;9944;48.240;16.478;2023-05-20T07:39:45;100236.25;;;16.28;72.24
19594;BME280;9944;48.240;16.478;2023-05-20T07:43:48;100229.66;;;16.44;72.47
19594;BME280;9944;48.240;16.478;2023-05-20T07:47:52;100226.53;;;16.66;72.25
19594;BME280;9944;48.240;16.478;2023-05-20T07:51:55;100226.09;;;16.88;72.05
19594;BME280;9944;48.240;16.478;2023-05-20T07:56:00;100227.28;;;17.13;71.62
19594;BME280;9944;48.240;16.478;2023-05-20T08:00:04;100224.38;;;17.23;70.51
19594;BME280;9944;48.240;16.478;2023-05-20T08:04:17;100222.38;;;17.32;71.01
19594;BME280;9944;48.240;16.478;2023-05-20T08:08:21;100225.50;;;17.50;71.04
19594;BME280;9944;48.240;16.478;2023-05-20T08:12:30;100213.53;;;17.65;69.93
19594;BME280;9944;48.240;16.478;2023-05-20T08:16:35;100209.66;;;17.78;69.76
19594;BME280;9944;48.240;16.478;2023-05-20T08:20:38;100202.25;;;17.89;69.11
19594;BME280;9944;48.240;16.478;2023-05-20T08:24:42;100191.97;;;18.07;69.03
19594;BME280;9944;48.240;16.478;2023-05-20T08:28:47;100189.03;;;18.16;68.70
19594;BME280;9944;48.240;16.478;2023-05-20T08:32:51;100180.25;;;18.11;68.65
19594;BME280;9944;48.240;16.478;2023-05-20T08:36:55;100169.28;;;18.20;68.37
19594;BME280;9944;48.240;16.478;2023-05-20T08:40:58;100163.88;;;18.23;67.88
19594;BME280;9944;48.240;16.478;2023-05-20T08:45:10;100173.41;;;18.32;67.73
19594;BME280;9944;48.240;16.478;2023-05-20T08:49:13;100171.09;;;18.49;67.77
19594;BME280;9944;48.240;16.478;2023-05-20T08:53:17;100169.84;;;18.63;66.85
19594;BME280;9944;48.240;16.478;2023-05-20T08:57:21;100168.41;;;18.79;67.31
19594;BME280;9944;48.240;16.478;2023-05-20T09:01:25;100165.91;;;19.03;67.96
19594;BME280;9944;48.240;16.478;2023-05-20T09:05:29;100155.41;;;19.23;67.34
19594;BME280;9944;48.240;16.478;2023-05-20T09:09:33;100151.22;;;19.41;67.33
19594;BME280;9944;48.240;16.478;2023-05-20T09:13:37;100139.78;;;19.63;66.87
19594;BME280;9944;48.240;16.478;2023-05-20T09:17:41;100147.97;;;19.84;66.11
19594;BME280;9944;48.240;16.478;2023-05-20T09:21:45;100144.00;;;19.94;66.32
19594;BME280;9944;48.240;16.478;2023-05-20T09:25:49;100142.53;;;20.10;66.19
19594;BME280;9944;48.240;16.478;2023-05-20T09:29:52;100140.66;;;20.12;65.39
19594;BME280;9944;48.240;16.478;2023-05-20T09:33:57;100148.22;;;20.25;65.51
19594;BME280;9944;48.240;16.478;2023-05-20T09:38:00;100141.84;;;20.29;65.15
19594;BME280;9944;48.240;16.478;2023-05-20T09:42:05;100137.63;;;20.22;64.70
19594;BME280;9944;48.240;16.478;2023-05-20T09:46:10;100136.41;;;20.30;64.54
19594;BME280;9944;48.240;16.478;2023-05-20T09:50:16;100131.81;;;20.34;64.67
19594;BME280;9944;48.240;16.478;2023-05-20T09:54:22;100131.25;;;20.48;65.27
19594;BME280;9944;48.240;16.478;2023-05-20T09:58:27;100126.19;;;20.64;64.43
19594;BME280;9944;48.240;16.478;2023-05-20T10:02:32;100120.28;;;20.78;64.34
19594;BME280;9944;48.240;16.478;2023-05-20T10:06:59;100116.25;;;20.88;63.10
19594;BME280;9944;48.240;16.478;2023-05-20T10:11:14;100114.88;;;21.00;62.99
19594;BME280;9944;48.240;16.478;2023-05-20T10:15:23;100115.53;;;21.05;62.31
19594;BME280;9944;48.240;16.478;2023-05-20T10:19:31;100110.75;;;21.13;64.02
19594;BME280;9944;48.240;16.478;2023-05-20T10:23:35;100096.81;;;21.25;63.08
19594;BME280;9944;48.240;16.478;2023-05-20T10:27:42;100087.97;;;21.44;62.88
19594;BME280;9944;48.240;16.478;2023-05-20T10:31:48;100084.59;;;21.59;61.78
19594;BME280;9944;48.240;16.478;2023-05-20T10:35:52;100083.88;;;21.75;61.65
19594;BME280;9944;48.240;16.478;2023-05-20T10:40:05;100075.13;;;21.90;61.35
19594;BME280;9944;48.240;16.478;2023-05-20T10:44:09;100078.81;;;22.08;60.54
19594;BME280;9944;48.240;16.478;2023-05-20T10:48:19;100065.84;;;22.16;60.60
19594;BME280;9944;48.240;16.478;2023-05-20T10:52:23;100052.47;;;22.34;61.29
19594;BME280;9944;48.240;16.478;2023-05-20T10:56:28;100054.78;;;22.41;59.39
19594;BME280;9944;48.240;16.478;2023-05-20T11:00:33;100040.88;;;22.51;59.83
19594;BME280;9944;48.240;16.478;2023-05-20T11:04:37;100042.53;;;22.72;59.27
19594;BME280;9944;48.240;16.478;2023-05-20T11:08:41;100048.16;;;22.85;59.38
19594;BME280;9944;48.240;16.478;2023-05-20T11:12:48;100034.47;;;22.90;57.79
19594;BME280;9944;48.240;16.478;2023-05-20T11:16:51;100032.72;;;22.89;57.41
19594;BME280;9944;48.240;16.478;2023-05-20T11:20:55;100026.72;;;23.01;57.15
19594;BME280;9944;48.240;16.478;2023-05-20T11:24:58;100028.47;;;23.02;57.52
19594;BME280;9944;48.240;16.478;2023-05-20T11:29:08;100027.03;;;22.95;57.22
19594;BME280;9944;48.240;16.478;2023-05-20T11:33:15;100027.50;;;22.86;56.17
19594;BME280;9944;48.240;16.478;2023-05-20T11:37:18;100022.75;;;22.73;56.57
19594;BME280;9944;48.240;16.478;2023-05-20T11:41:23;100024.16;;;22.80;56.19
19594;BME280;9944;48.240;16.478;2023-05-20T11:45:38;100028.63;;;22.99;56.19
19594;BME280;9944;48.240;16.478;2023-05-20T11:49:41;100033.69;;;23.05;54.56
19594;BME280;9944;48.240;16.478;2023-05-20T11:53:45;100028.31;;;23.05;54.35
19594;BME280;9944;48.240;16.478;2023-05-20T11:57:49;100027.97;;;23.11;54.16
19594;BME280;9944;48.240;16.478;2023-05-20T12:01:54;100021.16;;;23.04;53.81
19594;BME280;9944;48.240;16.478;2023-05-20T12:05:59;100024.81;;;23.03;53.64
19594;BME280;9944;48.240;16.478;2023-05-20T12:10:03;100025.63;;;23.05;52.20
19594;BME280;9944;48.240;16.478;2023-05-20T12:14:07;100020.53;;;23.16;52.26
19594;BME280;9944;48.240;16.478;2023-05-20T12:18:11;100023.22;;;23.16;52.99
19594;BME280;9944;48.240;16.478;2023-05-20T12:22:14;100015.16;;;23.34;53.13
19594;BME280;9944;48.240;16.478;2023-05-20T12:26:17;100002.59;;;23.50;52.78
19594;BME280;9944;48.240;16.478;2023-05-20T12:30:22;99999.47;;;23.58;51.49
19594;BME280;9944;48.240;16.478;2023-05-20T12:34:26;99995.13;;;23.55;51.98
19594;BME280;9944;48.240;16.478;2023-05-20T12:38:30;99995.38;;;23.51;51.19
19594;BME280;9944;48.240;16.478;2023-05-20T12:42:34;99991.63;;;23.53;51.80
19594;BME280;9944;48.240;16.478;2023-05-20T12:46:37;99991.63;;;23.53;51.52
19594;BME280;9944;48.240;16.478;2023-05-20T12:50:42;99994.44;;;23.52;51.33
19594;BME280;9944;48.240;16.478;2023-05-20T12:54:45;99984.84;;;23.46;51.24
19594;BME280;9944;48.240;16.478;2023-05-20T12:58:48;99985.53;;;23.50;51.96
19594;BME280;9944;48.240;16.478;2023-05-20T13:02:51;99980.22;;;23.66;51.97
19594;BME280;9944;48.240;16.478;2023-05-20T13:06:57;99988.72;;;23.74;52.03
19594;BME280;9944;48.240;16.478;2023-05-20T13:11:00;99979.44;;;23.80;51.26
19594;BME280;9944;48.240;16.478;2023-05-20T13:15:04;99979.69;;;23.75;50.83
19594;BME280;9944;48.240;16.478;2023-05-20T13:19:07;99974.47;;;23.72;50.78
19594;BME280;9944;48.240;16.478;2023-05-20T13:23:11;99968.75;;;23.78;51.07
19594;BME280;9944;48.240;16.478;2023-05-20T13:27:14;99964.91;;;23.82;50.96
19594;BME280;9944;48.240;16.478;2023-05-20T13:31:18;99962.97;;;23.84;50.72
19594;BME280;9944;48.240;16.478;2023-05-20T13:35:21;99956.81;;;23.82;51.18
19594;BME280;9944;48.240;16.478;2023-05-20T13:39:25;99959.34;;;23.85;51.20
19594;BME280;9944;48.240;16.478;2023-05-20T13:43:30;99944.72;;;23.89;51.36
19594;BME280;9944;48.240;16.478;2023-05-20T13:47:33;99946.13;;;23.97;51.45
19594;BME280;9944;48.240;16.478;2023-05-20T13:51:37;99935.19;;;24.00;51.45
19594;BME280;9944;48.240;16.478;2023-05-20T13:55:42;99926.31;;;23.98;51.82
19594;BME280;9944;48.240;16.478;2023-05-20T13:59:45;99935.19;;;24.00;51.42
19594;BME280;9944;48.240;16.478;2023-05-20T14:03:48;99928.53;;;23.89;49.66
19594;BME280;9944;48.240;16.478;2023-05-20T14:07:51;99923.84;;;23.77;49.83
19594;BME280;9944;48.240;16.478;2023-05-20T14:11:56;99918.78;;;23.71;49.72
19594;BME280;9944;48.240;16.478;2023-05-20T14:15:59;99907.50;;;23.64;50.02
19594;BME280;9944;48.240;16.478;2023-05-20T14:20:02;99899.69;;;23.60;49.70
19594;BME280;9944;48.240;16.478;2023-05-20T14:24:06;99896.19;;;23.58;49.49
19594;BME280;9944;48.240;16.478;2023-05-20T14:28:11;99900.00;;;23.53;49.54
19594;BME280;9944;48.240;16.478;2023-05-20T14:32:14;99893.66;;;23.54;50.04
19594;BME280;9944;48.240;16.478;2023-05-20T14:36:17;99904.44;;;23.54;50.04
19594;BME280;9944;48.240;16.478;2023-05-20T14:40:20;99900.19;;;23.50;50.24
19594;BME280;9944;48.240;16.478;2023-05-20T14:44:25;99899.59;;;23.45;50.26
19594;BME280;9944;48.240;16.478;2023-05-20T14:48:28;99898.00;;;23.41;50.75
19594;BME280;9944;48.240;16.478;2023-05-20T14:52:31;99898.06;;;23.40;50.97
19594;BME280;9944;48.240;16.478;2023-05-20T14:56:34;99889.06;;;23.41;50.63
19594;BME280;9944;48.240;16.478;2023-05-20T15:00:39;99882.97;;;23.37;50.87
19594;BME280;9944;48.240;16.478;2023-05-20T15:04:42;99878.53;;;23.36;50.99
19594;BME280;9944;48.240;16.478;2023-05-20T15:08:47;99874.28;;;23.32;50.87
19594;BME280;9944;48.240;16.478;2023-05-20T15:12:50;99876.09;;;23.31;51.25
19594;BME280;9944;48.240;16.478;2023-05-20T15:16:55;99870.78;;;23.30;51.29
19594;BME280;9944;48.240;16.478;2023-05-20T15:20:58;99873.13;;;23.36;50.70
19594;BME280;9944;48.240;16.478;2023-05-20T15:25:02;99871.06;;;23.41;51.10
19594;BME280;9944;48.240;16.478;2023-05-20T15:29:05;99862.97;;;23.41;50.73
19594;BME280;9944;48.240;16.478;2023-05-20T15:33:10;99863.94;;;23.40;51.22
19594;BME280;9944;48.240;16.478;2023-05-20T15:37:13;99858.56;;;23.40;51.36
19594;BME280;9944;48.240;16.478;2023-05-20T15:41:16;99849.78;;;23.36;51.43
19594;BME280;9944;48.240;16.478;2023-05-20T15:45:19;99849.84;;;23.35;50.74
19594;BME280;9944;48.240;16.478;2023-05-20T15:49:24;99840.38;;;23.28;50.57
19594;BME280;9944;48.240;16.478;2023-05-20T15:53:27;99839.75;;;23.23;50.64
19594;BME280;9944;48.240;16.478;2023-05-20T15:57:30;99847.22;;;23.17;50.94
19594;BME280;9944;48.240;16.478;2023-05-20T16:01:33;99842.91;;;23.13;50.65
19594;BME280;9944;48.240;16.478;2023-05-20T16:05:40;99836.69;;;23.13;50.38
19594;BME280;9944;48.240;16.478;2023-05-20T16:09:43;99833.22;;;23.11;50.51
19594;BME280;9944;48.240;16.478;2023-05-20T16:13:46;99832.34;;;23.10;51.00
19594;BME280;9944;48.240;16.478;2023-05-20T16:17:49;99832.50;;;23.07;51.03
19594;BME280;9944;48.240;16.478;2023-05-20T16:21:53;99825.53;;;23.03;50.13
19594;BME280;9944;48.240;16.478;2023-05-20T16:25:56;99833.19;;;22.95;50.11
19594;BME280;9944;48.240;16.478;2023-05-20T16:29:59;99819.03;;;22.91;50.08
19594;BME280;9944;48.240;16.478;2023-05-20T16:34:03;99827.34;;;22.87;50.42
19594;BME280;9944;48.240;16.478;2023-05-20T16:38:07;99824.97;;;22.80;50.77
19594;BME280;9944;48.240;16.478;2023-05-20T16:42:10;99822.38;;;22.79;50.93
19594;BME280;9944;48.240;16.478;2023-05-20T16:46:13;99828.00;;;22.74;50.37
19594;BME280;9944;48.240;16.478;2023-05-20T16:50:16;99834.47;;;22.70;51.28
19594;BME280;9944;48.240;16.478;2023-05-20T16:54:21;99825.81;;;22.65;51.80
19594;BME280;9944;48.240;16.478;2023-05-20T16:58:24;99829.59;;;22.61;51.99
19594;BME280;9944;48.240;16.478;2023-05-20T17:02:27;99840.72;;;22.55;52.02
19594;BME280;9944;48.240;16.478;2023-05-20T17:06:30;99847.06;;;22.52;53.04
19594;BME280;9944;48.240;16.478;2023-05-20T17:10:36;99849.13;;;22.47;52.59
19594;BME280;9944;48.240;16.478;2023-05-20T17:14:39;99840.44;;;22.42;52.91
19594;BME280;9944;48.240;16.478;2023-05-20T17:18:42;99841.47;;;22.39;53.33
19594;BME280;9944;48.240;16.478;2023-05-20T17:22:45;99842.56;;;22.35;53.29
19594;BME280;9944;48.240;16.478;2023-05-20T17:26:50;99840.06;;;22.32;53.75
19594;BME280;9944;48.240;16.478;2023-05-20T17:30:53;99839.44;;;22.27;54.04
19594;BME280;9944;48.240;16.478;2023-05-20T17:34:56;99837.97;;;22.20;54.85
19594;BME280;9944;48.240;16.478;2023-05-20T17:38:59;99838.31;;;22.14;55.33
19594;BME280;9944;48.240;16.478;2023-05-20T17:43:06;99843.06;;;22.09;55.36
19594;BME280;9944;48.240;16.478;2023-05-20T17:47:09;99847.00;;;22.01;56.10
19594;BME280;9944;48.240;16.478;2023-05-20T17:51:12;99845.72;;;21.91;55.89
19594;BME280;9944;48.240;16.478;2023-05-20T17:55:16;99843.53;;;21.80;56.48
19594;BME280;9944;48.240;16.478;2023-05-20T17:59:24;99843.13;;;21.71;57.03
19594;BME280;9944;48.240;16.478;2023-05-20T18:03:27;99836.31;;;21.63;57.21
19594;BME280;9944;48.240;16.478;2023-05-20T18:07:31;99837.50;;;21.58;57.27
19594;BME280;9944;48.240;16.478;2023-05-20T18:11:35;99859.41;;;21.48;57.91
19594;BME280;9944;48.240;16.478;2023-05-20T18:15:40;99849.09;;;21.39;58.18
19594;BME280;9944;48.240;16.478;2023-05-20T18:19:43;99846.81;;;21.31;58.45
19594;BME280;9944;48.240;16.478;2023-05-20T18:23:46;99848.00;;;21.24;58.68
19594;BME280;9944;48.240;16.478;2023-05-20T18:27:50;99843.88;;;21.17;59.01
19594;BME280;9944;48.240;16.478;2023-05-20T18:31:55;99853.31;;;21.07;59.39
19594;BME280;9944;48.240;16.478;2023-05-20T18:35:58;99843.25;;;20.91;59.76
19594;BME280;9944;48.240;16.478;2023-05-20T18:40:01;99851.06;;;20.77;60.71
19594;BME280;9944;48.240;16.478;2023-05-20T18:44:07;99848.78;;;20.68;61.66
19594;BME280;9944;48.240;16.478;2023-05-20T18:48:11;99849.34;;;20.55;62.48
19594;BME280;9944;48.240;16.478;2023-05-20T18:52:26;99861.28;;;20.48;62.89
19594;BME280;9944;48.240;16.478;2023-05-20T18:56:29;99854.56;;;20.38;63.10
19594;BME280;9944;48.240;16.478;2023-05-20T19:00:33;99870.00;;;20.33;63.15
19594;BME280;9944;48.240;16.478;2023-05-20T19:04:38;99873.91;;;20.24;63.43
19594;BME280;9944;48.240;16.478;2023-05-20T19:08:41;99867.44;;;20.08;64.13
19594;BME280;9944;48.240;16.478;2023-05-20T19:12:44;99877.81;;;19.95;64.93
19594;BME280;9944;48.240;16.478;2023-05-20T19:16:47;99894.38;;;19.83;64.68
19594;BME280;9944;48.240;16.478;2023-05-20T19:20:52;99897.56;;;19.70;64.68
19594;BME280;9944;48.240;16.478;2023-05-20T19:24:55;99895.38;;;19.58;64.94
19594;BME280;9944;48.240;16.478;2023-05-20T19:28:58;99898.38;;;19.49;65.29
19594;BME280;9944;48.240;16.478;2023-05-20T19:33:03;99901.28;;;19.42;65.05
19594;BME280;9944;48.240;16.478;2023-05-20T19:37:07;99908.72;;;19.34;65.23
19594;BME280;9944;48.240;16.478;2023-05-20T19:41:11;99910.81;;;19.26;65.52
19594;BME280;9944;48.240;16.478;2023-05-20T19:45:15;99907.44;;;19.21;65.89
19594;BME280;9944;48.240;16.478;2023-05-20T19:49:18;99909.56;;;19.13;66.04
19594;BME280;9944;48.240;16.478;2023-05-20T19:53:22;99910.69;;;19.05;66.24
19594;BME280;9944;48.240;16.478;2023-05-20T19:57:26;99916.38;;;18.96;66.12
19594;BME280;9944;48.240;16.478;2023-05-20T20:01:29;99908.72;;;18.87;66.60
19594;BME280;9944;48.240;16.478;2023-05-20T20:05:32;99924.25;;;18.76;66.83
19594;BME280;9944;48.240;16.478;2023-05-20T20:09:38;99931.84;;;18.63;67.41
19594;BME280;9944;48.240;16.478;2023-05-20T20:13:41;99931.16;;;18.56;67.38
19594;BME280;9944;48.240;16.478;2023-05-20T20:17:44;99927.75;;;18.51;67.53
19594;BME280;9944;48.240;16.478;2023-05-20T20:21:53;99924.38;;;18.46;67.91
19594;BME280;9944;48.240;16.478;2023-05-20T20:26:00;99929.88;;;18.41;67.99
19594;BME280;9944;48.240;16.478;2023-05-20T20:30:04;99924.94;;;18.29;68.07
19594;BME280;9944;48.240;16.478;2023-05-20T20:34:07;99926.16;;;18.19;68.35
19594;BME280;9944;48.240;16.478;2023-05-20T20:38:10;99918.50;;;18.08;69.01
19594;BME280;9944;48.240;16.478;2023-05-20T20:42:14;99929.59;;;17.96;69.16
19594;BME280;9944;48.240;16.478;2023-05-20T20:46:19;99929.91;;;17.86;69.63
19594;BME280;9944;48.240;16.478;2023-05-20T20:50:22;99924.81;;;17.77;69.89
19594;BME280;9944;48.240;16.478;2023-05-20T20:54:25;99925.00;;;17.71;70.21
19594;BME280;9944;48.240;16.478;2023-05-20T20:58:30;99932.41;;;17.61;70.53
19594;BME280;9944;48.240;16.478;2023-05-20T21:02:35;99921.97;;;17.53;70.77
19594;BME280;9944;48.240;16.478;2023-05-20T21:06:39;99937.22;;;17.50;71.03
19594;BME280;9944;48.240;16.478;2023-05-20T21:10:42;99941.81;;;17.45;71.36
19594;BME280;9944;48.240;16.478;2023-05-20T21:14:47;99928.59;;;17.40;71.57
19594;BME280;9944;48.240;16.478;2023-05-20T21:18:50;99934.06;;;17.35;71.83
19594;BME280;9944;48.240;16.478;2023-05-20T21:22:53;99935.13;;;17.30;71.83
19594;BME280;9944;48.240;16.478;2023-05-20T21:26:56;99934.53;;;17.20;72.13